createdAt,value
2023-05-01T00:02:27.273Z,94935.66
2023-05-01T00:04:54.342Z,94940.88
2023-05-01T00:07:21.679Z,94941.34
2023-05-01T00:09:48.657Z,94933.91
2023-05-01T00:12:15.774Z,94933.97
2023-05-01T00:14:42.697Z,94933.41
2023-05-01T00:17:10.054Z,94947.00
2023-05-01T00:19:37.084Z,94940.69
2023-05-01T00:22:04.159Z,94944.09
2023-05-01T00:24:31.041Z,94944.41
2023-05-01T00:26:58.206Z,94949.53
2023-05-01T00:29:25.295Z,94946.63
2023-05-01T00:31:52.469Z,94953.31
2023-05-01T00:34:20.049Z,94958.66
2023-05-01T00:36:48.106Z,94953.31
2023-05-01T00:39:16.564Z,94958.38
2023-05-01T00:41:43.943Z,94958.34
2023-05-01T00:44:10.933Z,94953.72
2023-05-01T00:46:38.228Z,94961.34
2023-05-01T00:49:05.235Z,94963.41
2023-05-01T00:51:33.110Z,94972.50
2023-05-01T00:54:00.424Z,94973.06
2023-05-01T00:56:28.058Z,94967.16
2023-05-01T00:58:56.823Z,94973.84
2023-05-01T01:01:24.485Z,94963.16
2023-05-01T01:03:54.803Z,94974.38
2023-05-01T01:06:39.754Z,94965.19
2023-05-01T01:09:19.100Z,94969.13
2023-05-01T01:11:58.097Z,94972.78
2023-05-01T01:14:33.125Z,94969.84
2023-05-01T01:17:48.699Z,94975.94
2023-05-01T01:20:38.033Z,94979.03
2023-05-01T01:23:23.909Z,94969.41
2023-05-01T01:26:13.197Z,94989.41
2023-05-01T01:28:52.513Z,94988.56
2023-05-01T01:31:36.369Z,94989.72
2023-05-01T01:34:14.958Z,94995.28
2023-05-01T01:37:10.987Z,94990.09
2023-05-01T01:39:45.278Z,94990.75
2023-05-01T01:42:18.698Z,94990.34
2023-05-01T01:44:54.889Z,94988.00
2023-05-01T01:47:28.439Z,94985.28
2023-05-01T01:49:57.825Z,94979.50
2023-05-01T01:52:27.840Z,94975.78
2023-05-01T01:54:58.701Z,94979.50
2023-05-01T01:57:27.359Z,94971.19
2023-05-01T01:59:55.595Z,94972.00
2023-05-01T02:02:23.887Z,94974.72
2023-05-01T02:04:52.568Z,94975.84
2023-05-01T02:07:21.865Z,94977.41
2023-05-01T02:09:51.713Z,94972.69
2023-05-01T02:12:19.877Z,94960.47
2023-05-01T02:14:49.091Z,94976.16
2023-05-01T02:17:17.801Z,94958.25
2023-05-01T02:19:46.647Z,94980.28
2023-05-01T02:22:15.109Z,94981.03
2023-05-01T02:24:43.880Z,94974.88
2023-05-01T02:27:17.378Z,94977.03
2023-05-01T02:29:45.051Z,94981.47
2023-05-01T02:32:12.473Z,94978.03
2023-05-01T02:34:39.626Z,94971.00
2023-05-01T02:37:08.194Z,94978.94
2023-05-01T02:39:35.609Z,94978.47
2023-05-01T02:42:04.552Z,94979.03
2023-05-01T02:44:39.967Z,94986.34
2023-05-01T02:47:09.284Z,94975.47
2023-05-01T02:49:38.434Z,94981.09
2023-05-01T02:52:05.658Z,94975.88
2023-05-01T02:54:33.134Z,94980.03
2023-05-01T02:57:03.602Z,94978.53
2023-05-01T02:59:30.566Z,94996.59
2023-05-01T03:01:58.183Z,94996.66
2023-05-01T03:04:25.555Z,94982.97
2023-05-01T03:06:52.595Z,94991.44
2023-05-01T03:09:20.532Z,94997.06
2023-05-01T03:11:47.944Z,94995.34
2023-05-01T03:14:14.911Z,94994.78
2023-05-01T03:16:41.992Z,94994.69
2023-05-01T03:19:09.112Z,94986.34
2023-05-01T03:21:37.129Z,94990.66
2023-05-01T03:24:04.248Z,95001.75
2023-05-01T03:26:33.033Z,95001.38
2023-05-01T03:29:00.050Z,95006.34
2023-05-01T03:31:27.699Z,95009.13
2023-05-01T03:33:55.935Z,95010.97
2023-05-01T03:36:23.250Z,95010.59
2023-05-01T03:38:51.377Z,95014.44
2023-05-01T03:41:47.211Z,95015.09
2023-05-01T03:44:24.001Z,95020.78
2023-05-01T03:46:51.258Z,95027.50
2023-05-01T03:49:24.340Z,95021.03
2023-05-01T03:51:52.439Z,95025.09
2023-05-01T03:54:19.408Z,95021.84
2023-05-01T03:57:02.460Z,95030.78
2023-05-01T03:59:30.561Z,95030.09
2023-05-01T04:01:58.502Z,95031.44
2023-05-01T04:04:29.695Z,95035.97
2023-05-01T04:06:58.988Z,95040.97
2023-05-01T04:09:26.214Z,95035.28
2023-05-01T04:11:53.475Z,95030.97
2023-05-01T04:14:20.434Z,95032.13
2023-05-01T04:16:47.892Z,95042.63
2023-05-01T04:19:14.753Z,95027.22
2023-05-01T04:21:45.030Z,95036.22
2023-05-01T04:24:12.247Z,95038.47
2023-05-01T04:26:39.378Z,95036.41
2023-05-01T04:29:07.424Z,95030.75
2023-05-01T04:31:53.239Z,95040.59
2023-05-01T04:34:20.606Z,95039.44
2023-05-01T04:36:47.616Z,95051.38
2023-05-01T04:39:15.164Z,95040.31
2023-05-01T04:41:42.336Z,95037.25
2023-05-01T04:44:09.339Z,95049.13
2023-05-01T04:46:36.262Z,95049.13
2023-05-01T04:49:04.201Z,95046.25
2023-05-01T04:51:31.154Z,95043.06
2023-05-01T04:53:59.305Z,95048.16
2023-05-01T04:56:27.776Z,95044.03
2023-05-01T04:59:00.370Z,95056.47
2023-05-01T05:01:28.767Z,95055.44
2023-05-01T05:03:56.840Z,95051.09
2023-05-01T05:06:24.219Z,95065.38
2023-05-01T05:08:52.251Z,95069.91
2023-05-01T05:11:20.198Z,95053.81
2023-05-01T05:13:57.431Z,95073.09
2023-05-01T05:16:25.115Z,95074.78
2023-05-01T05:18:52.598Z,95074.16
2023-05-01T05:21:19.571Z,95075.97
2023-05-01T05:23:51.158Z,95082.19
2023-05-01T05:26:18.629Z,95092.69
2023-05-01T05:28:45.844Z,95085.59
2023-05-01T05:31:13.041Z,95081.50
2023-05-01T05:33:40.056Z,95089.31
2023-05-01T05:36:07.528Z,95085.34
2023-05-01T05:38:40.622Z,95085.19
2023-05-01T05:41:09.849Z,95082.81
2023-05-01T05:43:37.351Z,95093.44
2023-05-01T05:46:05.515Z,95090.00
2023-05-01T05:48:34.430Z,95082.50
2023-05-01T05:51:01.626Z,95087.22
2023-05-01T05:53:31.517Z,95093.66
2023-05-01T05:55:58.828Z,95080.66
2023-05-01T05:58:26.000Z,95092.69
2023-05-01T06:00:54.758Z,95096.59
2023-05-01T06:03:22.329Z,95100.59
2023-05-01T06:05:51.928Z,95104.09
2023-05-01T06:08:19.135Z,95097.53
2023-05-01T06:10:47.553Z,95088.16
2023-05-01T06:13:15.036Z,95095.50
2023-05-01T06:15:46.150Z,95101.69
2023-05-01T06:18:13.603Z,95104.72
2023-05-01T06:20:41.053Z,95109.13
2023-05-01T06:23:10.094Z,95093.69
2023-05-01T06:25:51.736Z,95103.69
2023-05-01T06:28:18.949Z,95104.88
2023-05-01T06:30:46.479Z,95101.41
2023-05-01T06:33:17.343Z,95107.38
2023-05-01T06:35:46.680Z,95110.59
2023-05-01T06:38:13.855Z,95113.06
2023-05-01T06:40:41.705Z,95106.53
2023-05-01T06:43:08.851Z,95098.66
2023-05-01T06:45:35.919Z,95107.03
2023-05-01T06:48:03.015Z,95114.34
2023-05-01T06:50:30.029Z,95111.53
2023-05-01T06:53:01.058Z,95110.41
2023-05-01T06:55:32.089Z,95103.13
2023-05-01T06:58:02.628Z,95108.03
2023-05-01T07:00:33.711Z,95110.81
2023-05-01T07:03:03.194Z,95106.78
2023-05-01T07:05:30.536Z,95108.94
2023-05-01T07:08:01.225Z,95114.31
2023-05-01T07:10:30.282Z,95117.28
2023-05-01T07:12:57.282Z,95119.69
2023-05-01T07:15:25.038Z,95115.88
2023-05-01T07:17:52.435Z,95117.50
2023-05-01T07:20:19.592Z,95117.00
2023-05-01T07:22:46.743Z,95124.50
2023-05-01T07:25:14.324Z,95123.66
2023-05-01T07:27:41.693Z,95128.50
2023-05-01T07:30:09.797Z,95125.22
2023-05-01T07:32:36.740Z,95131.41
2023-05-01T07:35:04.499Z,95122.53
2023-05-01T07:37:31.560Z,95127.06
2023-05-01T07:39:58.758Z,95124.59
2023-05-01T07:42:29.360Z,95127.34
2023-05-01T07:44:56.538Z,95127.88
2023-05-01T07:47:24.401Z,95123.81
2023-05-01T07:49:51.490Z,95128.91
2023-05-01T07:52:18.730Z,95113.56
2023-05-01T07:54:51.187Z,95113.06
2023-05-01T07:57:18.723Z,95120.47
2023-05-01T07:59:45.905Z,95125.47
2023-05-01T08:02:13.925Z,95120.00
2023-05-01T08:04:41.797Z,95119.81
2023-05-01T08:07:09.012Z,95116.88
2023-05-01T08:09:36.032Z,95117.13
2023-05-01T08:12:04.130Z,95101.00
2023-05-01T08:14:31.897Z,95099.44
2023-05-01T08:16:59.017Z,95117.59
2023-05-01T08:19:30.198Z,95117.66
2023-05-01T08:21:57.970Z,95118.25
2023-05-01T08:24:26.205Z,95116.72
2023-05-01T08:26:53.422Z,95115.13
2023-05-01T08:29:20.300Z,95104.25
2023-05-01T08:31:47.920Z,95106.41
2023-05-01T08:34:15.214Z,95108.69
2023-05-01T08:36:42.411Z,95112.16
2023-05-01T08:39:09.326Z,95106.72
2023-05-01T08:41:38.190Z,95103.56
2023-05-01T08:44:09.249Z,95088.84
2023-05-01T08:46:49.087Z,95105.44
2023-05-01T08:49:17.751Z,95100.69
2023-05-01T08:51:47.562Z,95103.09
2023-05-01T08:54:16.646Z,95103.03
2023-05-01T08:56:47.208Z,95099.34
2023-05-01T08:59:14.989Z,95103.44
2023-05-01T09:01:43.609Z,95092.34
2023-05-01T09:04:12.137Z,95079.91
2023-05-01T09:06:39.340Z,95097.69
2023-05-01T09:09:06.634Z,95092.50
2023-05-01T09:11:33.596Z,95088.56
2023-05-01T09:14:01.738Z,95090.78
2023-05-01T09:16:29.604Z,95081.13
2023-05-01T09:18:58.050Z,95095.38
2023-05-01T09:21:27.329Z,95093.25
2023-05-01T09:23:54.382Z,95096.44
2023-05-01T09:26:22.035Z,95100.63
2023-05-01T09:28:49.341Z,95089.75
2023-05-01T09:31:23.077Z,95092.84
2023-05-01T09:33:58.563Z,95099.94
2023-05-01T09:36:27.250Z,95096.25
2023-05-01T09:38:54.663Z,95105.66
2023-05-01T09:41:22.597Z,95088.78
2023-05-01T09:43:51.813Z,95091.41
2023-05-01T09:46:19.221Z,95095.31
2023-05-01T09:48:56.559Z,95104.03
2023-05-01T09:51:29.101Z,95088.63
2023-05-01T09:54:01.931Z,95088.66
2023-05-01T09:56:31.474Z,95085.75
2023-05-01T09:59:15.488Z,95078.78
2023-05-01T10:01:45.164Z,95077.19
2023-05-01T10:04:13.248Z,95083.63
2023-05-01T10:06:41.441Z,95080.00
2023-05-01T10:09:16.663Z,95084.00
2023-05-01T10:11:55.791Z,95076.69
2023-05-01T10:14:28.386Z,95067.38
2023-05-01T10:16:57.977Z,95084.03
2023-05-01T10:19:25.739Z,95091.06
2023-05-01T10:21:53.526Z,95064.56
2023-05-01T10:24:21.008Z,95072.56
2023-05-01T10:26:49.232Z,95059.44
2023-05-01T10:29:17.495Z,95063.16
2023-05-01T10:31:45.001Z,95065.66
2023-05-01T10:34:18.206Z,95065.63
2023-05-01T10:36:50.685Z,95061.91
2023-05-01T10:39:32.455Z,95062.28
2023-05-01T10:42:06.362Z,95072.25
2023-05-01T10:44:35.101Z,95076.34
2023-05-01T10:47:24.961Z,95066.66
2023-05-01T10:50:07.216Z,95064.91
2023-05-01T10:53:15.719Z,95063.19
2023-05-01T10:55:45.165Z,95065.53
2023-05-01T10:58:13.154Z,95067.44
2023-05-01T11:00:41.651Z,95065.38
2023-05-01T11:03:24.514Z,95074.78
2023-05-01T11:06:00.939Z,95065.06
2023-05-01T11:08:37.561Z,95065.81
2023-05-01T11:11:19.886Z,95065.47
2023-05-01T11:14:03.068Z,95070.72
2023-05-01T11:16:39.524Z,95071.88
2023-05-01T11:19:08.763Z,95064.59
2023-05-01T11:21:38.835Z,95056.56
2023-05-01T11:24:09.637Z,95072.31
2023-05-01T11:26:42.215Z,95069.25
2023-05-01T11:29:11.458Z,95063.97
2023-05-01T11:31:39.588Z,95057.41
2023-05-01T11:34:07.252Z,95061.03
2023-05-01T11:36:51.237Z,95061.97
2023-05-01T11:39:18.894Z,95059.38
2023-05-01T11:41:46.600Z,95057.19
2023-05-01T11:44:18.259Z,95059.84
2023-05-01T11:46:45.410Z,95049.03
2023-05-01T11:49:12.408Z,95019.41
2023-05-01T11:51:40.847Z,95045.16
2023-05-01T11:54:15.192Z,95054.41
2023-05-01T11:56:43.220Z,95047.75
2023-05-01T11:59:11.617Z,95043.47
2023-05-01T12:01:41.310Z,95051.56
2023-05-01T12:04:08.813Z,95054.72
2023-05-01T12:06:45.150Z,95055.38
2023-05-01T12:09:24.421Z,95058.63
2023-05-01T12:11:53.478Z,95056.09
2023-05-01T12:14:24.570Z,95062.38
2023-05-01T12:16:51.845Z,95049.63
2023-05-01T12:19:19.746Z,95061.47
2023-05-01T12:21:48.047Z,95070.44
2023-05-01T12:24:17.396Z,95067.72
2023-05-01T12:26:46.573Z,95068.38
2023-05-01T12:29:14.264Z,95080.47
2023-05-01T12:31:48.813Z,95082.38
2023-05-01T12:34:16.119Z,95073.13
2023-05-01T12:36:53.945Z,95073.66
2023-05-01T12:39:23.446Z,95082.84
2023-05-01T12:41:51.346Z,95071.75
2023-05-01T12:44:30.812Z,95069.56
2023-05-01T12:47:02.803Z,95090.22
2023-05-01T12:49:31.637Z,95078.59
2023-05-01T12:52:03.626Z,95080.09
2023-05-01T12:54:38.947Z,95078.97
2023-05-01T12:57:14.888Z,95059.22
2023-05-01T12:59:47.067Z,95056.56
2023-05-01T13:02:17.169Z,95071.00
2023-05-01T13:04:44.804Z,95062.94
2023-05-01T13:07:14.986Z,95064.72
2023-05-01T13:10:00.242Z,95062.59
2023-05-01T13:12:29.615Z,95073.84
2023-05-01T13:14:57.580Z,95068.53
2023-05-01T13:17:31.719Z,95072.75
2023-05-01T13:20:01.407Z,95074.22
2023-05-01T13:22:38.221Z,95084.81
2023-05-01T13:25:23.449Z,95076.44
2023-05-01T13:27:52.398Z,95083.31
2023-05-01T13:30:30.594Z,95081.88
2023-05-01T13:32:58.298Z,95078.63
2023-05-01T13:35:26.943Z,95081.72
2023-05-01T13:37:54.829Z,95104.19
2023-05-01T13:40:27.944Z,95096.25
2023-05-01T13:42:55.124Z,95102.53
2023-05-01T13:45:22.260Z,95099.88
2023-05-01T13:47:50.819Z,95096.28
2023-05-01T13:50:18.109Z,95097.81
2023-05-01T13:52:45.987Z,95117.00
2023-05-01T13:55:13.788Z,95108.34
2023-05-01T13:57:42.392Z,95109.13
2023-05-01T14:00:19.850Z,95101.63
2023-05-01T14:02:49.411Z,95099.63
2023-05-01T14:05:17.709Z,95120.25
2023-05-01T14:07:55.320Z,95117.09
2023-05-01T14:10:26.257Z,95115.44
2023-05-01T14:13:01.258Z,95108.81
2023-05-01T14:15:29.647Z,95112.78
2023-05-01T14:17:58.978Z,95096.97
2023-05-01T14:20:26.007Z,95112.69
2023-05-01T14:22:53.643Z,95097.59
2023-05-01T14:25:25.371Z,95107.03
2023-05-01T14:27:54.987Z,95082.41
2023-05-01T14:30:33.815Z,95107.31
2023-05-01T14:33:02.989Z,95108.03
2023-05-01T14:35:30.715Z,95082.91
2023-05-01T14:38:11.715Z,95096.63
2023-05-01T14:40:41.198Z,95093.75
2023-05-01T14:43:09.143Z,95089.91
2023-05-01T14:45:37.314Z,95077.91
2023-05-01T14:48:04.515Z,95003.41
2023-05-01T14:50:31.955Z,95088.00
2023-05-01T14:53:01.184Z,95082.69
2023-05-01T14:55:34.500Z,95077.66
2023-05-01T14:58:02.052Z,95087.38
2023-05-01T15:00:29.155Z,95076.84
2023-05-01T15:02:58.633Z,95077.56
2023-05-01T15:05:26.317Z,95090.22
2023-05-01T15:08:02.469Z,95060.63
2023-05-01T15:10:31.729Z,95084.19
2023-05-01T15:12:58.865Z,95080.50
2023-05-01T15:15:29.876Z,95083.47
2023-05-01T15:17:57.286Z,95082.94
2023-05-01T15:20:24.474Z,95094.19
2023-05-01T15:22:51.553Z,95081.59
2023-05-01T15:25:18.949Z,95083.22
2023-05-01T15:27:48.585Z,95094.31
2023-05-01T15:30:16.458Z,95093.53
2023-05-01T15:32:43.767Z,95091.53
2023-05-01T15:35:11.201Z,95076.56
2023-05-01T15:37:38.094Z,95084.59
2023-05-01T15:40:05.980Z,95069.25
2023-05-01T15:42:33.186Z,95079.00
2023-05-01T15:45:00.432Z,95088.38
2023-05-01T15:47:28.356Z,95073.66
2023-05-01T15:49:55.345Z,95064.66
2023-05-01T15:52:22.404Z,95080.50
2023-05-01T15:54:49.297Z,95075.59
2023-05-01T15:57:19.237Z,95070.25
2023-05-01T15:59:46.211Z,95069.25
2023-05-01T16:02:13.322Z,95063.22
2023-05-01T16:04:40.479Z,95059.25
2023-05-01T16:07:08.974Z,95070.69
2023-05-01T16:09:36.035Z,95075.91
2023-05-01T16:12:04.777Z,95072.56
2023-05-01T16:14:31.802Z,95077.63
2023-05-01T16:16:58.832Z,95080.28
2023-05-01T16:19:29.250Z,95068.06
2023-05-01T16:21:56.392Z,95081.63
2023-05-01T16:24:23.329Z,95084.94
2023-05-01T16:26:50.481Z,95087.81
2023-05-01T16:29:18.508Z,95097.41
2023-05-01T16:31:48.644Z,95095.00
2023-05-01T16:34:20.200Z,95084.28
2023-05-01T16:36:47.536Z,95102.13
2023-05-01T16:39:19.092Z,95102.66
2023-05-01T16:41:48.925Z,95107.59
2023-05-01T16:44:17.357Z,95110.94
2023-05-01T16:46:54.560Z,95113.97
2023-05-01T16:49:23.247Z,95120.63
2023-05-01T16:51:50.368Z,95120.31
2023-05-01T16:54:18.128Z,95122.56
2023-05-01T16:56:45.167Z,95128.69
2023-05-01T16:59:12.244Z,95131.56
2023-05-01T17:01:39.304Z,95121.72
2023-05-01T17:04:06.515Z,95141.63
2023-05-01T17:06:33.670Z,95138.25
2023-05-01T17:09:00.700Z,95136.88
2023-05-01T17:11:28.259Z,95133.94
2023-05-01T17:13:56.993Z,95132.53
2023-05-01T17:16:23.952Z,95135.06
2023-05-01T17:18:51.326Z,95137.56
2023-05-01T17:21:18.748Z,95143.59
2023-05-01T17:23:45.943Z,95141.44
2023-05-01T17:26:15.903Z,95135.53
2023-05-01T17:28:45.136Z,95144.00
2023-05-01T17:31:12.150Z,95156.06
2023-05-01T17:33:39.329Z,95160.97
2023-05-01T17:36:06.323Z,95167.44
2023-05-01T17:38:33.568Z,95165.19
2023-05-01T17:41:00.435Z,95172.47
2023-05-01T17:43:27.593Z,95175.94
2023-05-01T17:45:54.664Z,95174.94
2023-05-01T17:48:21.863Z,95175.22
2023-05-01T17:50:49.118Z,95179.94
2023-05-01T17:53:16.754Z,95181.00
2023-05-01T17:55:44.251Z,95181.53
2023-05-01T17:58:12.922Z,95189.69
2023-05-01T18:00:40.600Z,95184.81
2023-05-01T18:03:08.880Z,95188.09
2023-05-01T18:05:36.175Z,95195.09
2023-05-01T18:08:03.418Z,95190.31
2023-05-01T18:10:31.419Z,95182.22
2023-05-01T18:12:59.761Z,95201.56
2023-05-01T18:15:27.681Z,95208.34
2023-05-01T18:17:54.651Z,95181.16
2023-05-01T18:20:21.780Z,95201.06
2023-05-01T18:22:48.803Z,95202.69
2023-05-01T18:25:17.169Z,95207.28
2023-05-01T18:27:45.197Z,95207.28
2023-05-01T18:30:12.609Z,95214.56
2023-05-01T18:35:14.000Z,95212.72
2023-05-01T18:37:42.484Z,95224.28
2023-05-01T18:40:10.099Z,95230.16
2023-05-01T18:42:37.108Z,95228.00
2023-05-01T18:45:04.810Z,95217.25
2023-05-01T18:47:32.708Z,95231.00
2023-05-01T18:50:00.117Z,95232.88
2023-05-01T18:52:29.193Z,95242.25
2023-05-01T18:54:57.055Z,95231.25
2023-05-01T18:57:24.231Z,95233.41
2023-05-01T18:59:51.289Z,95229.09
2023-05-01T19:02:18.708Z,95244.97
2023-05-01T19:07:16.300Z,95255.16
2023-05-01T19:09:43.569Z,95251.66
2023-05-01T19:12:10.652Z,95251.91
2023-05-01T19:14:37.851Z,95248.69
2023-05-01T19:17:04.948Z,95254.59
2023-05-01T19:19:32.156Z,95259.41
2023-05-01T19:21:59.210Z,95263.72
2023-05-01T19:24:26.454Z,95268.78
2023-05-01T19:26:53.470Z,95275.22
2023-05-01T19:29:20.577Z,95267.34
2023-05-01T19:31:47.855Z,95274.06
2023-05-01T19:34:15.031Z,95280.50
2023-05-01T19:36:41.850Z,95272.34
2023-05-01T19:39:08.936Z,95271.25
2023-05-01T19:41:36.355Z,95264.50
2023-05-01T19:44:03.549Z,95264.75
2023-05-01T19:46:30.488Z,95268.25
2023-05-01T19:48:57.556Z,95269.47
2023-05-01T19:51:24.654Z,95272.97
2023-05-01T19:53:51.528Z,95274.53
2023-05-01T19:56:19.168Z,95270.78
2023-05-01T19:58:46.522Z,95275.28
2023-05-01T20:01:13.829Z,95268.25
2023-05-01T20:03:41.159Z,95273.13
2023-05-01T20:06:09.110Z,95279.50
2023-05-01T20:08:35.934Z,95238.53
2023-05-01T20:11:03.517Z,95239.03
2023-05-01T20:13:30.451Z,95274.63
2023-05-01T20:15:57.623Z,95276.25
2023-05-01T20:18:24.824Z,95268.19
2023-05-01T20:20:52.072Z,95270.31
2023-05-01T20:23:20.313Z,95267.84
2023-05-01T20:25:47.784Z,95272.69
2023-05-01T20:28:15.070Z,95276.38
2023-05-01T20:30:46.196Z,95277.78
2023-05-01T20:33:13.953Z,95272.31
2023-05-01T20:35:41.211Z,95270.13
2023-05-01T20:38:08.252Z,95268.69
2023-05-01T20:40:36.987Z,95287.81
2023-05-01T20:43:04.157Z,95288.28
2023-05-01T20:45:31.107Z,95289.69
2023-05-01T20:47:58.987Z,95288.03
2023-05-01T20:50:27.189Z,95289.34
2023-05-01T20:52:55.292Z,95298.34
2023-05-01T20:55:23.575Z,95289.13
2023-05-01T20:57:50.920Z,95293.75
2023-05-01T21:00:17.929Z,95289.59
2023-05-01T21:02:45.216Z,95288.72
2023-05-01T21:05:13.073Z,95296.69
2023-05-01T21:07:40.784Z,95291.34
2023-05-01T21:10:10.347Z,95297.81
2023-05-01T21:12:38.679Z,95298.63
2023-05-01T21:15:06.204Z,95295.53
2023-05-01T21:17:35.664Z,95300.91
2023-05-01T21:20:07.231Z,95300.47
2023-05-01T21:22:34.535Z,95296.28
2023-05-01T21:25:01.385Z,95297.72
2023-05-01T21:27:31.073Z,95295.50
2023-05-01T21:30:02.010Z,95301.03
2023-05-01T21:32:33.882Z,95291.50
2023-05-01T21:35:01.651Z,95282.13
2023-05-01T21:37:33.365Z,95298.72
2023-05-01T21:40:01.347Z,95304.34
2023-05-01T21:42:35.662Z,95293.25
2023-05-01T21:45:07.757Z,95289.63
2023-05-01T21:47:39.731Z,95307.47
2023-05-01T21:50:07.992Z,95307.47
2023-05-01T21:52:35.513Z,95313.22
2023-05-01T21:55:04.578Z,95311.94
2023-05-01T21:57:32.079Z,95303.91
2023-05-01T22:00:01.569Z,95313.16
2023-05-01T22:02:38.582Z,95295.91
2023-05-01T22:05:06.486Z,95309.06
2023-05-01T22:07:34.100Z,95316.59
2023-05-01T22:10:01.811Z,95324.69
2023-05-01T22:12:31.167Z,95321.94
2023-05-01T22:14:58.328Z,95331.81
2023-05-01T22:17:26.294Z,95329.53
2023-05-01T22:19:53.349Z,95335.53
2023-05-01T22:22:20.522Z,95336.03
2023-05-01T22:24:47.563Z,95322.94
2023-05-01T22:27:16.082Z,95321.47
2023-05-01T22:29:43.098Z,95315.91
2023-05-01T22:32:09.987Z,95331.16
2023-05-01T22:34:37.312Z,95316.25
2023-05-01T22:37:04.161Z,95325.38
2023-05-01T22:39:36.335Z,95328.91
2023-05-01T22:42:04.017Z,95327.84
2023-05-01T22:44:31.801Z,95325.09
2023-05-01T22:47:01.767Z,95311.88
2023-05-01T22:49:28.881Z,95324.88
2023-05-01T22:51:56.222Z,95321.38
2023-05-01T22:54:24.082Z,95329.06
2023-05-01T22:56:51.743Z,95308.00
2023-05-01T22:59:19.324Z,95320.47
2023-05-01T23:01:46.909Z,95328.31
2023-05-01T23:04:14.373Z,95321.72
2023-05-01T23:06:41.713Z,95317.13
2023-05-01T23:09:08.810Z,95307.25
2023-05-01T23:11:35.817Z,95309.44
2023-05-01T23:14:02.881Z,95286.28
2023-05-01T23:16:36.606Z,95309.28
2023-05-01T23:19:03.916Z,95301.41
2023-05-01T23:21:31.236Z,95298.38
2023-05-01T23:23:58.292Z,95298.59
2023-05-01T23:26:28.731Z,95305.97
2023-05-01T23:28:55.858Z,95298.19
2023-05-01T23:31:27.791Z,95285.22
2023-05-01T23:33:55.482Z,95286.75
2023-05-01T23:36:22.546Z,95296.25
2023-05-01T23:38:49.853Z,95289.69
2023-05-01T23:41:16.826Z,95293.81
2023-05-01T23:43:48.032Z,95286.69
2023-05-01T23:46:16.172Z,95288.78
2023-05-01T23:48:43.249Z,95274.28
2023-05-01T23:51:10.689Z,95279.97
2023-05-01T23:53:37.578Z,95280.22
2023-05-01T23:56:04.759Z,95280.22
2023-05-01T23:58:31.669Z,95288.16
